Главная страница
METAR-TAF:

METAR-TAF

Аэропорты :

Норрчёпинг, Швеция

широта: 58-35N, долгота: 016-09E, высота над уровнем моря: 34 м

Текущие метеонаблюдения

Эта сводка был подготовлена 20 минут назад, в 01:20 UTC
Ветер 3 Узел от восточный
Температура 0°C
Влажность 100%
Давление 1005 hPa
Видимость: 2800 м
дымка

METAR: ESSP 130120Z AUTO 08003KT 2800 BR NCD 00/00 Q1005

Время: 02:40 (01:40 UTC)

Прогноз

Эта сводка был подготовлена 8 часа и 10 минут назад, в 17:30 UTC
Прогноз действительный с 12-го 18 UTC до 12-го 22 UTC
Ветер 5 Узел от южный
Видимость 10 км и более
Отдельные облака на высоте 1500 фута
Рассеянная облачность на высоте 3000 фута
Вероятность 40%
С 12-го 18 UTC до 12-го 21 UTC
Рассеянная облачность на высоте 1400 фута

TAF: ESSP 121730Z 1218/1222 18005KT 9999 SCT015 BKN030 PROB40 1218/1221 BKN014

Метеонаблюдения и прогнозы для более 4000 аэропортов (сводки METAR и TAF).

Имеющиеся станции представлены на карте желтыми и красными точками.

Чтобы увидеть название станции, наведите на нее мышь.

Затем щелкните, чтобы увидеть метеонаблюдения и метеопрогнозы.

Управление картой: чтобы увеличить масштаб, щелкните зеленые кнопки с черным крестиком; чтобы уменьшить масштаб, щелкните зеленую кнопку с тире; для просмотра соседних карт щелкайте зеленые стрелки.


METAR-TAF: